Terminal Aerodrome Forecast
Issued by NWS

Home | Current Version | Previous Version | Text Only | Print | Product List | Glossary Off
Versions: 1 2 3 4 5 6 7 8 9 10 11 12 13 14 15

384
FTUS45 KGGW 232320
TAFSDY
TAF
KSDY 232320Z 2400/2424 08006KT 3SM BR OVC010
     FM240300 04007KT 6SM -RA BR OVC004
     FM241200 35007KT P6SM VCSH OVC004
     FM242100 32012KT P6SM SHRA OVC010=

USA.gov is the U.S. government's official web portal to all federal, state and local government web resources and services.